createdAt,value
2023-03-31T00:01:52.981Z,13.57
2023-03-31T00:04:24.069Z,13.52
2023-03-31T00:06:54.422Z,13.48
2023-03-31T00:09:24.626Z,13.50
2023-03-31T00:11:52.382Z,13.44
2023-03-31T00:14:20.477Z,13.34
2023-03-31T00:16:47.247Z,13.42
2023-03-31T00:19:20.714Z,13.36
2023-03-31T00:21:49.124Z,13.35
2023-03-31T00:24:16.462Z,13.37
2023-03-31T00:26:43.796Z,13.35
2023-03-31T00:29:12.637Z,13.34
2023-03-31T00:31:39.222Z,13.35
2023-03-31T00:34:06.248Z,13.30
2023-03-31T00:36:36.450Z,13.36
2023-03-31T00:39:09.357Z,13.36
2023-03-31T00:41:37.654Z,13.33
2023-03-31T00:44:24.544Z,13.36
2023-03-31T00:47:13.821Z,13.33
2023-03-31T00:49:56.968Z,13.22
2023-03-31T00:52:37.441Z,13.27
2023-03-31T00:55:10.839Z,13.31
2023-03-31T00:57:39.571Z,13.27
2023-03-31T01:00:18.869Z,13.30
2023-03-31T01:02:53.125Z,13.29
2023-03-31T01:05:26.637Z,13.36
2023-03-31T01:07:54.645Z,13.34
2023-03-31T01:10:22.595Z,13.41
2023-03-31T01:12:54.200Z,13.28
2023-03-31T01:15:21.300Z,13.38
2023-03-31T01:17:50.306Z,13.33
2023-03-31T01:20:35.492Z,13.30
2023-03-31T01:23:26.452Z,13.34
2023-03-31T01:26:13.065Z,13.29
2023-03-31T01:29:21.494Z,13.20
2023-03-31T01:32:12.841Z,13.33
2023-03-31T01:35:19.706Z,13.22
2023-03-31T01:38:23.799Z,13.07
2023-03-31T01:41:22.725Z,13.04
2023-03-31T01:44:26.089Z,13.02
2023-03-31T01:47:07.067Z,12.81
2023-03-31T01:49:46.533Z,12.87
2023-03-31T01:52:30.522Z,12.80
2023-03-31T01:54:57.249Z,12.77
2023-03-31T01:57:31.012Z,12.63
2023-03-31T02:00:03.440Z,12.68
2023-03-31T02:02:35.090Z,12.67
2023-03-31T02:05:09.824Z,12.65
2023-03-31T02:07:50.998Z,12.62
2023-03-31T02:10:20.586Z,12.62
2023-03-31T02:12:49.532Z,12.61
2023-03-31T02:15:22.239Z,12.60
2023-03-31T02:17:51.846Z,12.64
2023-03-31T02:20:21.892Z,12.58
2023-03-31T02:22:55.330Z,12.62
2023-03-31T02:25:35.912Z,12.61
2023-03-31T02:28:09.257Z,12.60
2023-03-31T02:30:59.266Z,12.66
2023-03-31T02:33:25.983Z,12.67
2023-03-31T02:35:52.775Z,12.69
2023-03-31T02:38:19.646Z,12.68
2023-03-31T02:40:46.266Z,12.68
2023-03-31T02:43:13.010Z,12.59
2023-03-31T02:45:41.116Z,12.68
2023-03-31T02:48:14.639Z,12.64
2023-03-31T02:51:07.473Z,12.67
2023-03-31T02:53:56.170Z,12.67
2023-03-31T02:56:44.475Z,12.62
2023-03-31T02:59:38.599Z,12.66
2023-03-31T03:02:10.737Z,12.59
2023-03-31T03:04:51.821Z,12.57
2023-03-31T03:07:31.252Z,12.64
2023-03-31T03:10:20.467Z,12.62
2023-03-31T03:13:15.007Z,12.77
2023-03-31T03:15:47.292Z,12.67
2023-03-31T03:18:14.434Z,12.77
2023-03-31T03:20:43.240Z,12.72
2023-03-31T03:23:09.712Z,12.68
2023-03-31T03:25:36.414Z,12.74
2023-03-31T03:28:02.900Z,12.73
2023-03-31T03:30:29.502Z,12.68
2023-03-31T03:32:56.127Z,12.78
2023-03-31T03:35:22.796Z,12.74
2023-03-31T03:37:49.251Z,12.73
2023-03-31T03:40:15.892Z,12.73
2023-03-31T03:42:42.575Z,12.64
2023-03-31T03:45:09.852Z,12.71
2023-03-31T03:47:36.514Z,12.72
2023-03-31T03:50:04.580Z,12.70
2023-03-31T03:52:31.105Z,12.66
2023-03-31T03:54:57.632Z,12.62
2023-03-31T03:57:24.113Z,12.60
2023-03-31T03:59:50.626Z,12.68
2023-03-31T04:02:17.051Z,12.68
2023-03-31T04:04:43.550Z,12.59
2023-03-31T04:07:10.132Z,12.67
2023-03-31T04:09:36.573Z,12.65
2023-03-31T04:12:03.138Z,12.62
2023-03-31T04:14:29.647Z,12.60
2023-03-31T04:16:58.744Z,12.65
2023-03-31T04:19:27.972Z,12.62
2023-03-31T04:22:04.830Z,12.56
2023-03-31T04:24:32.793Z,12.61
2023-03-31T04:27:00.625Z,12.53
2023-03-31T04:29:27.103Z,12.60
2023-03-31T04:31:58.753Z,12.61
2023-03-31T04:34:35.910Z,12.62
2023-03-31T04:37:03.669Z,12.57
2023-03-31T04:39:30.836Z,12.54
2023-03-31T04:41:59.013Z,12.48
2023-03-31T04:44:25.998Z,12.42
2023-03-31T04:46:52.705Z,12.60
2023-03-31T04:49:19.804Z,12.53
2023-03-31T04:51:46.640Z,12.56
2023-03-31T04:54:13.391Z,12.57
2023-03-31T04:56:39.931Z,12.55
2023-03-31T04:59:09.388Z,12.55
2023-03-31T05:01:36.426Z,12.54
2023-03-31T05:04:05.425Z,12.55
2023-03-31T05:06:32.193Z,12.68
2023-03-31T05:08:58.648Z,12.62
2023-03-31T05:11:25.914Z,12.69
2023-03-31T05:13:52.367Z,12.60
2023-03-31T05:16:18.853Z,12.66
2023-03-31T05:18:48.619Z,12.60
2023-03-31T05:21:18.604Z,12.57
2023-03-31T05:23:46.066Z,12.55
2023-03-31T05:26:13.854Z,12.52
2023-03-31T05:28:41.236Z,12.51
2023-03-31T05:31:09.319Z,12.56
2023-03-31T05:33:40.253Z,12.49
2023-03-31T05:36:11.246Z,12.49
2023-03-31T05:38:38.311Z,12.53
2023-03-31T05:41:04.931Z,12.52
2023-03-31T05:43:31.424Z,12.49
2023-03-31T05:45:58.120Z,12.58
2023-03-31T05:48:24.701Z,12.53
2023-03-31T05:50:51.192Z,12.62
2023-03-31T05:53:17.665Z,12.58
2023-03-31T05:55:44.323Z,12.65
2023-03-31T05:58:10.956Z,12.57
2023-03-31T06:00:37.895Z,12.65
2023-03-31T06:03:04.702Z,12.57
2023-03-31T06:05:32.367Z,12.63
2023-03-31T06:07:58.883Z,12.69
2023-03-31T06:10:28.099Z,12.67
2023-03-31T06:12:54.569Z,12.66
2023-03-31T06:15:21.069Z,12.76
2023-03-31T06:17:48.202Z,12.70
2023-03-31T06:20:27.346Z,12.65
2023-03-31T06:22:54.949Z,12.68
2023-03-31T06:25:21.801Z,12.73
2023-03-31T06:27:48.470Z,12.74
2023-03-31T06:30:15.219Z,12.74
2023-03-31T06:32:41.756Z,12.65
2023-03-31T06:35:08.658Z,12.58
2023-03-31T06:37:35.880Z,12.69
2023-03-31T06:40:02.921Z,12.69
2023-03-31T06:42:29.434Z,12.65
2023-03-31T06:44:56.016Z,12.61
2023-03-31T06:47:22.618Z,12.48
2023-03-31T06:49:49.490Z,12.43
2023-03-31T06:52:16.462Z,12.47
2023-03-31T06:54:43.190Z,12.61
2023-03-31T06:57:09.865Z,12.38
2023-03-31T06:59:36.595Z,12.27
2023-03-31T07:02:03.241Z,12.39
2023-03-31T07:04:29.903Z,12.36
2023-03-31T07:06:58.549Z,12.30
2023-03-31T07:09:25.023Z,12.22
2023-03-31T07:11:51.517Z,12.21
2023-03-31T07:14:18.042Z,12.14
2023-03-31T07:16:44.627Z,12.18
2023-03-31T07:19:11.272Z,12.23
2023-03-31T07:21:37.914Z,12.14
2023-03-31T07:24:04.653Z,12.21
2023-03-31T07:26:31.132Z,12.22
2023-03-31T07:28:57.825Z,12.05
2023-03-31T07:31:24.441Z,12.19
2023-03-31T07:33:51.149Z,12.16
2023-03-31T07:36:18.188Z,12.15
2023-03-31T07:38:48.586Z,12.07
2023-03-31T07:41:18.198Z,12.13
2023-03-31T07:43:45.538Z,12.08
2023-03-31T07:46:16.264Z,12.06
2023-03-31T07:48:43.915Z,12.04
2023-03-31T07:51:10.547Z,12.03
2023-03-31T07:53:37.015Z,12.10
2023-03-31T07:56:03.569Z,12.12
2023-03-31T07:58:30.387Z,12.09
2023-03-31T08:00:56.924Z,12.09
2023-03-31T08:03:23.396Z,12.08
2023-03-31T08:05:54.469Z,12.12
2023-03-31T08:08:21.566Z,12.11
2023-03-31T08:10:48.900Z,12.12
2023-03-31T08:13:15.495Z,12.10
2023-03-31T08:15:42.085Z,12.10
2023-03-31T08:18:08.705Z,12.12
2023-03-31T08:20:35.223Z,12.12
2023-03-31T08:23:01.732Z,12.02
2023-03-31T08:25:28.183Z,12.02
2023-03-31T08:27:56.039Z,12.10
2023-03-31T08:30:22.738Z,12.13
2023-03-31T08:32:49.338Z,12.13
2023-03-31T08:35:15.855Z,12.15
2023-03-31T08:37:42.469Z,12.24
2023-03-31T08:40:18.228Z,12.20
2023-03-31T08:42:56.037Z,12.12
2023-03-31T08:45:37.945Z,12.26
2023-03-31T08:48:11.753Z,12.30
2023-03-31T08:50:48.042Z,12.37
2023-03-31T08:53:24.678Z,12.46
2023-03-31T08:55:53.632Z,12.36
2023-03-31T08:58:43.138Z,12.42
2023-03-31T09:01:24.889Z,12.54
2023-03-31T09:03:58.381Z,12.60
2023-03-31T09:06:38.198Z,12.69
2023-03-31T09:09:10.751Z,12.72
2023-03-31T09:11:43.693Z,12.71
2023-03-31T09:14:12.940Z,12.73
2023-03-31T09:16:54.728Z,12.73
2023-03-31T09:19:30.314Z,12.73
2023-03-31T09:22:00.439Z,12.79
2023-03-31T09:24:40.678Z,12.64
2023-03-31T09:27:12.228Z,12.79
2023-03-31T09:30:04.603Z,12.86
2023-03-31T09:32:32.535Z,12.87
2023-03-31T09:35:16.111Z,12.84
2023-03-31T09:37:42.865Z,12.84
2023-03-31T09:40:19.968Z,12.89
2023-03-31T09:42:49.804Z,12.95
2023-03-31T09:45:19.955Z,12.97
2023-03-31T09:47:52.042Z,12.88
2023-03-31T09:50:18.719Z,12.96
2023-03-31T09:52:51.989Z,12.98
2023-03-31T09:55:38.338Z,13.06
2023-03-31T09:58:14.477Z,13.04
2023-03-31T10:00:43.397Z,13.08
2023-03-31T10:03:14.002Z,13.16
2023-03-31T10:05:51.131Z,13.14
2023-03-31T10:08:17.591Z,13.12
2023-03-31T10:10:57.329Z,13.19
2023-03-31T10:13:27.262Z,13.17
2023-03-31T10:15:56.132Z,13.30
2023-03-31T10:18:33.321Z,13.34
2023-03-31T10:21:01.954Z,13.49
2023-03-31T10:23:33.477Z,13.57
2023-03-31T10:26:02.059Z,13.72
2023-03-31T10:28:32.929Z,13.86
2023-03-31T10:31:01.570Z,13.96
2023-03-31T10:33:31.744Z,13.96
2023-03-31T10:36:09.047Z,13.99
2023-03-31T10:38:40.653Z,13.97
2023-03-31T10:41:07.769Z,13.92
2023-03-31T10:43:41.840Z,13.82
2023-03-31T10:46:09.656Z,13.58
2023-03-31T10:48:39.840Z,13.36
2023-03-31T10:51:14.267Z,13.22
2023-03-31T10:53:44.317Z,13.19
2023-03-31T10:56:42.030Z,13.31
2023-03-31T10:59:20.737Z,13.33
2023-03-31T11:02:11.702Z,13.35
2023-03-31T11:04:50.457Z,13.56
2023-03-31T11:07:32.414Z,13.56
2023-03-31T11:10:32.796Z,13.62
2023-03-31T11:13:04.182Z,13.91
2023-03-31T11:15:48.404Z,13.89
2023-03-31T11:18:30.024Z,14.05
2023-03-31T11:20:59.512Z,14.02
2023-03-31T11:23:42.939Z,14.02
2023-03-31T11:26:12.400Z,14.09
2023-03-31T11:29:17.928Z,13.95
2023-03-31T11:32:03.041Z,13.50
2023-03-31T11:34:44.762Z,13.49
2023-03-31T11:37:31.901Z,13.52
2023-03-31T11:40:19.953Z,13.43
2023-03-31T11:42:59.214Z,13.40
2023-03-31T11:45:38.263Z,13.42
2023-03-31T11:48:17.900Z,13.73
2023-03-31T11:50:47.292Z,13.87
2023-03-31T11:53:20.976Z,13.86
2023-03-31T11:55:52.773Z,13.97
2023-03-31T11:58:30.055Z,14.22
2023-03-31T12:01:04.611Z,14.32
2023-03-31T12:03:42.297Z,14.49
2023-03-31T12:06:20.002Z,14.40
2023-03-31T12:08:54.339Z,14.39
2023-03-31T12:11:36.020Z,14.52
2023-03-31T12:14:25.062Z,14.53
2023-03-31T12:17:00.444Z,14.52
2023-03-31T12:19:44.583Z,14.48
2023-03-31T12:22:44.288Z,14.55
2023-03-31T12:25:16.363Z,14.43
2023-03-31T12:27:45.084Z,14.53
2023-03-31T12:30:22.636Z,14.59
2023-03-31T12:32:56.022Z,14.68
2023-03-31T12:36:00.557Z,14.82
2023-03-31T12:39:02.652Z,14.65
2023-03-31T12:41:52.958Z,14.53
2023-03-31T12:44:28.457Z,14.61
2023-03-31T12:47:29.692Z,14.58
2023-03-31T12:50:16.376Z,14.57
2023-03-31T12:53:00.221Z,14.51
2023-03-31T12:55:45.752Z,14.39
2023-03-31T12:58:32.320Z,14.36
2023-03-31T13:01:17.429Z,14.54
2023-03-31T13:03:51.560Z,14.33
2023-03-31T13:06:30.386Z,14.55
2023-03-31T13:09:04.340Z,14.56
2023-03-31T13:11:33.824Z,14.65
2023-03-31T13:14:06.552Z,14.67
2023-03-31T13:16:35.301Z,15.01
2023-03-31T13:19:02.110Z,15.03
2023-03-31T13:21:28.718Z,15.09
2023-03-31T13:24:00.746Z,15.30
2023-03-31T13:26:56.772Z,15.44
2023-03-31T13:29:43.701Z,15.52
2023-03-31T13:32:12.942Z,15.32
2023-03-31T13:34:44.155Z,15.46
2023-03-31T13:37:28.951Z,15.41
2023-03-31T13:40:22.627Z,15.30
2023-03-31T13:43:37.276Z,15.39
2023-03-31T13:46:42.090Z,15.22
2023-03-31T13:49:30.371Z,15.36
2023-03-31T13:52:05.403Z,15.31
2023-03-31T13:55:06.155Z,15.50
2023-03-31T13:57:32.665Z,15.58
2023-03-31T14:00:12.389Z,15.63
2023-03-31T14:03:14.286Z,15.62
2023-03-31T14:05:43.491Z,15.70
2023-03-31T14:08:14.896Z,15.71
2023-03-31T14:10:42.960Z,15.78
2023-03-31T14:13:12.705Z,15.90
2023-03-31T14:15:48.493Z,15.95
2023-03-31T14:18:27.091Z,15.97
2023-03-31T14:21:13.482Z,15.98
2023-03-31T14:24:04.665Z,16.03
2023-03-31T14:26:37.362Z,16.21
2023-03-31T14:29:22.231Z,16.13
2023-03-31T14:31:51.427Z,16.20
2023-03-31T14:34:42.892Z,16.09
2023-03-31T14:37:17.754Z,16.26
2023-03-31T14:39:47.506Z,16.06
2023-03-31T14:42:16.980Z,16.21
2023-03-31T14:44:46.324Z,15.97
2023-03-31T14:47:21.962Z,16.11
2023-03-31T14:49:58.677Z,16.00
2023-03-31T14:52:29.555Z,16.17
2023-03-31T14:54:56.028Z,16.19
2023-03-31T14:57:38.295Z,16.02
2023-03-31T15:00:08.850Z,16.10
2023-03-31T15:02:40.624Z,15.88
2023-03-31T15:05:10.679Z,15.77
2023-03-31T15:07:37.534Z,15.46
2023-03-31T15:10:05.541Z,14.54
2023-03-31T15:12:32.538Z,14.38
2023-03-31T15:15:06.748Z,14.15
2023-03-31T15:17:41.805Z,14.08
2023-03-31T15:20:28.097Z,13.81
2023-03-31T15:22:59.512Z,13.89
2023-03-31T15:25:32.801Z,13.85
2023-03-31T15:28:18.140Z,13.79
2023-03-31T15:30:48.936Z,13.90
2023-03-31T15:33:31.686Z,13.71
2023-03-31T15:35:58.581Z,13.81
2023-03-31T15:38:31.904Z,13.69
2023-03-31T15:41:00.004Z,13.67
2023-03-31T15:43:32.349Z,13.66
2023-03-31T15:46:00.840Z,13.87
2023-03-31T15:48:34.336Z,13.86
2023-03-31T15:51:05.429Z,13.97
2023-03-31T15:53:46.059Z,13.76
2023-03-31T15:56:46.544Z,13.86
2023-03-31T15:59:34.424Z,13.97
2023-03-31T16:02:13.731Z,13.89
2023-03-31T16:04:40.597Z,14.07
2023-03-31T16:07:36.588Z,13.96
2023-03-31T16:10:21.308Z,14.00
2023-03-31T16:13:02.384Z,13.94
2023-03-31T16:15:31.476Z,13.99
2023-03-31T16:18:03.094Z,13.87
2023-03-31T16:20:37.180Z,14.02
2023-03-31T16:23:21.340Z,13.88
2023-03-31T16:25:48.304Z,13.80
2023-03-31T16:28:36.804Z,13.98
2023-03-31T16:31:05.311Z,13.84
2023-03-31T16:33:52.908Z,14.05
2023-03-31T16:36:19.478Z,13.96
2023-03-31T16:38:46.889Z,13.89
2023-03-31T16:41:15.785Z,13.97
2023-03-31T16:43:45.092Z,14.00
2023-03-31T16:46:11.672Z,13.74
2023-03-31T16:48:38.455Z,13.84
2023-03-31T16:51:05.162Z,13.81
2023-03-31T16:53:34.725Z,13.71
2023-03-31T16:56:09.168Z,13.49
2023-03-31T16:58:37.763Z,13.42
2023-03-31T17:01:07.080Z,13.37
2023-03-31T17:03:35.139Z,13.27
2023-03-31T17:06:06.787Z,13.24
2023-03-31T17:08:33.655Z,13.18
2023-03-31T17:11:06.971Z,13.25
2023-03-31T17:13:33.896Z,12.96
2023-03-31T17:16:08.707Z,13.16
2023-03-31T17:18:44.471Z,13.03
2023-03-31T17:21:13.661Z,13.19
2023-03-31T17:23:41.151Z,13.13
2023-03-31T17:26:12.811Z,12.94
2023-03-31T17:28:40.367Z,13.03
2023-03-31T17:31:18.884Z,13.05
2023-03-31T17:33:46.261Z,13.03
2023-03-31T17:36:13.150Z,12.95
2023-03-31T17:38:40.125Z,13.00
2023-03-31T17:41:09.899Z,12.99
2023-03-31T17:43:37.932Z,12.72
2023-03-31T17:46:12.882Z,12.86
2023-03-31T17:48:39.919Z,12.84
2023-03-31T17:51:08.157Z,12.76
2023-03-31T17:53:36.293Z,12.80
2023-03-31T17:56:03.926Z,12.76
2023-03-31T17:58:31.156Z,12.77
2023-03-31T18:00:58.426Z,12.69
2023-03-31T18:03:27.471Z,12.70
2023-03-31T18:05:54.019Z,12.76
2023-03-31T18:08:20.489Z,12.58
2023-03-31T18:10:47.039Z,12.57
2023-03-31T18:13:13.516Z,12.63
2023-03-31T18:15:46.664Z,12.57
2023-03-31T18:18:13.301Z,12.51
2023-03-31T18:20:39.894Z,12.53
2023-03-31T18:23:06.386Z,12.51
2023-03-31T18:25:33.214Z,12.51
2023-03-31T18:27:59.933Z,12.53
2023-03-31T18:30:26.649Z,12.52
2023-03-31T18:32:53.437Z,12.36
2023-03-31T18:35:20.790Z,12.40
2023-03-31T18:37:47.283Z,12.44
2023-03-31T18:40:14.993Z,12.46
2023-03-31T18:42:42.044Z,12.42
2023-03-31T18:45:12.519Z,12.46
2023-03-31T18:47:39.256Z,12.37
2023-03-31T18:50:06.817Z,12.48
2023-03-31T18:52:35.373Z,12.39
2023-03-31T18:55:02.735Z,12.54
2023-03-31T18:57:29.419Z,12.56
2023-03-31T18:59:55.985Z,12.49
2023-03-31T19:02:22.484Z,12.42
2023-03-31T19:04:49.821Z,12.41
2023-03-31T19:07:17.529Z,12.48
2023-03-31T19:09:44.062Z,12.49
2023-03-31T19:12:11.852Z,12.56
2023-03-31T19:14:38.449Z,12.51
2023-03-31T19:17:05.024Z,12.48
2023-03-31T19:19:31.496Z,12.47
2023-03-31T19:21:58.529Z,12.38
2023-03-31T19:24:25.089Z,12.48
2023-03-31T19:26:51.598Z,12.51
2023-03-31T19:29:18.041Z,12.57
2023-03-31T19:31:47.299Z,12.55
2023-03-31T19:34:14.079Z,12.54
2023-03-31T19:36:40.621Z,12.46
2023-03-31T19:39:07.316Z,12.46
2023-03-31T19:41:34.998Z,12.69
2023-03-31T19:44:01.615Z,12.55
2023-03-31T19:46:28.796Z,12.53
2023-03-31T19:48:55.292Z,12.50
2023-03-31T19:51:21.753Z,12.59
2023-03-31T19:53:48.246Z,12.52
2023-03-31T19:56:17.756Z,12.56
2023-03-31T19:58:44.533Z,12.45
2023-03-31T20:01:15.772Z,12.45
2023-03-31T20:03:42.384Z,12.46
2023-03-31T20:06:11.882Z,12.38
2023-03-31T20:08:41.465Z,12.22
2023-03-31T20:11:13.692Z,12.36
2023-03-31T20:13:42.164Z,12.31
2023-03-31T20:16:12.725Z,12.09
2023-03-31T20:18:40.021Z,12.23
2023-03-31T20:21:08.390Z,12.28
2023-03-31T20:23:36.495Z,12.21
2023-03-31T20:26:03.239Z,12.05
2023-03-31T20:28:29.894Z,12.05
2023-03-31T20:30:56.480Z,12.10
2023-03-31T20:33:24.044Z,12.07
2023-03-31T20:36:13.533Z,11.98
2023-03-31T20:38:42.815Z,11.86
2023-03-31T20:41:10.908Z,11.87
2023-03-31T20:43:38.377Z,11.84
2023-03-31T20:46:06.603Z,11.71
2023-03-31T20:48:39.888Z,11.78
2023-03-31T20:51:08.594Z,11.83
2023-03-31T20:53:44.456Z,11.87
2023-03-31T20:56:13.910Z,11.80
2023-03-31T20:58:43.971Z,11.77
2023-03-31T21:01:11.538Z,11.83
2023-03-31T21:03:38.120Z,11.82
2023-03-31T21:06:11.655Z,11.77
2023-03-31T21:08:39.538Z,11.66
2023-03-31T21:11:06.464Z,11.84
2023-03-31T21:13:33.513Z,11.75
2023-03-31T21:16:00.733Z,11.76
2023-03-31T21:18:29.250Z,11.75
2023-03-31T21:20:58.792Z,11.80
2023-03-31T21:23:26.428Z,11.69
2023-03-31T21:25:56.735Z,11.74
2023-03-31T21:28:25.423Z,11.72
2023-03-31T21:31:02.358Z,11.84
2023-03-31T21:33:30.384Z,11.88
2023-03-31T21:35:58.486Z,11.80
2023-03-31T21:38:26.105Z,11.90
2023-03-31T21:40:52.688Z,11.90
2023-03-31T21:43:19.843Z,11.98
2023-03-31T21:45:47.272Z,11.80
2023-03-31T21:48:14.236Z,11.86
2023-03-31T21:50:41.528Z,11.83
2023-03-31T21:53:09.235Z,11.91
2023-03-31T21:55:38.026Z,11.74
2023-03-31T21:58:05.656Z,11.92
2023-03-31T22:00:32.556Z,11.79
2023-03-31T22:03:16.394Z,11.89
2023-03-31T22:05:45.645Z,11.90
2023-03-31T22:08:12.134Z,12.03
2023-03-31T22:10:38.581Z,11.87
2023-03-31T22:13:05.293Z,12.07
2023-03-31T22:15:32.014Z,11.96
2023-03-31T22:17:58.754Z,12.04
2023-03-31T22:20:25.252Z,12.06
2023-03-31T22:22:51.779Z,12.00
2023-03-31T22:25:18.247Z,12.08
2023-03-31T22:27:44.745Z,12.08
2023-03-31T22:30:11.737Z,12.07
2023-03-31T22:32:38.335Z,12.10
2023-03-31T22:35:05.257Z,12.05
2023-03-31T22:37:32.177Z,12.07
2023-03-31T22:39:58.677Z,12.00
2023-03-31T22:42:25.139Z,12.02
2023-03-31T22:44:51.622Z,11.95
2023-03-31T22:47:18.100Z,11.96
2023-03-31T22:49:44.715Z,11.98
2023-03-31T22:52:11.638Z,11.85
2023-03-31T22:54:40.130Z,12.02
2023-03-31T22:57:07.733Z,11.84
2023-03-31T22:59:34.284Z,11.84
2023-03-31T23:02:00.791Z,11.82
2023-03-31T23:04:27.495Z,11.76
2023-03-31T23:06:55.138Z,11.68
2023-03-31T23:09:23.685Z,11.73
2023-03-31T23:11:50.571Z,11.60
2023-03-31T23:14:17.295Z,11.61
2023-03-31T23:16:44.310Z,11.76
2023-03-31T23:19:12.030Z,11.72
2023-03-31T23:21:38.908Z,11.68
2023-03-31T23:24:05.709Z,11.64
2023-03-31T23:26:34.003Z,11.73
2023-03-31T23:29:01.044Z,11.78
2023-03-31T23:31:30.245Z,11.68
2023-03-31T23:33:58.308Z,11.72
2023-03-31T23:36:25.924Z,12.05
2023-03-31T23:38:55.531Z,11.64
2023-03-31T23:41:26.357Z,11.62
2023-03-31T23:43:53.676Z,11.72
2023-03-31T23:46:20.510Z,11.73
2023-03-31T23:48:47.051Z,11.70
2023-03-31T23:51:13.634Z,11.72
2023-03-31T23:53:40.443Z,11.78
2023-03-31T23:56:10.476Z,11.68
2023-03-31T23:58:37.562Z,11.65
